This is the latest recevied weather packets stored in our database for station/object W4GAP. If no packets are shown the sender has not sent any weather packets the latest 1 day(s).
| Time | Temp. | Humidity | Pressure | Rain* | Wind** | Luminosity | Snow |
|---|---|---|---|---|---|---|---|
| 1778020221 | 24.44° C | 42% | 1010.3 hPa | 0 mm | 0 m/s | 18 W/m² | - |
| 1778019918 | 25° C | 42% | 1010.5 hPa | 0 mm | 0 m/s | 16 W/m² | - |
| 1778019614 | 25° C | 41% | 1010.6 hPa | 0 mm | 0 m/s | 22 W/m² | - |
| 1778019311 | 24.44° C | 41% | 1010 hPa | 0 mm | 0 m/s | 28 W/m² | - |
| 1778019008 | 24.44° C | 41% | 1010.1 hPa | 0 mm | 1.34 m/s, 212° | 19 W/m² | - |
| 1778018705 | 25° C | 40% | 1010.2 hPa | 0 mm | 1.79 m/s, 244° | 26 W/m² | - |
| 1778018402 | 25° C | 40% | 1010.5 hPa | 0 mm | 0.45 m/s, 303° | 25 W/m² | - |
| 1778018101 | 25° C | 40% | 1010.3 hPa | 0 mm | 0.45 m/s, 285° | 17 W/m² | - |
| 1778017798 | 25° C | 41% | 1010.6 hPa | 0 mm | 0 m/s | 19 W/m² | - |
| 1778017496 | 25.56° C | 39% | 1010.3 hPa | 0 mm | 0.45 m/s, 306° | 20 W/m² | - |
| 1778017193 | 25.56° C | 39% | 1010.9 hPa | 0 mm | 0 m/s | 20 W/m² | - |
| 1778016891 | 25.56° C | 39% | 1010.7 hPa | 0 mm | 0.89 m/s, 255° | 22 W/m² | - |
| 1778016586 | 25.56° C | 37% | 1010.6 hPa | 0 mm | 0.45 m/s, 297° | 23 W/m² | - |
| 1778016283 | 25.56° C | 37% | 1010.7 hPa | 0 mm | 1.34 m/s, 324° | 24 W/m² | - |
| 1778015979 | 25.56° C | 39% | 1010.7 hPa | 0 mm | 0.89 m/s, 241° | 26 W/m² | - |
| 1778015677 | 25.56° C | 39% | 1010.2 hPa | 0 mm | 0 m/s | 24 W/m² | - |
| 1778015373 | 25.56° C | 38% | 1010.3 hPa | 0 mm | 0 m/s | 46 W/m² | - |
| 1778015071 | 25° C | 40% | 1010.7 hPa | 0 mm | 0.45 m/s, 298° | 55 W/m² | - |
| 1778014767 | 25° C | 40% | 1010.8 hPa | 0 mm | 0.89 m/s, 179° | 28 W/m² | - |
| 1778014466 | 25° C | 40% | 1010.8 hPa | 0 mm | 0.45 m/s, 231° | 28 W/m² | - |
| 1778014162 | 25° C | 41% | 1010.9 hPa | 0 mm | 0 m/s | 27 W/m² | - |
| 1778013860 | 25° C | 41% | 1010.7 hPa | 0 mm | 0 m/s | 27 W/m² | - |
| 1778013557 | 25° C | 41% | 1010.8 hPa | 0 mm | 0 m/s | 29 W/m² | - |
| 1778013253 | 25.56° C | 38% | 1010.9 hPa | 0 mm | 0.45 m/s, 308° | 30 W/m² | - |
| 1778012950 | 25.56° C | 38% | 1010.8 hPa | 0 mm | 0.45 m/s, 281° | 30 W/m² | - |
* Rain latest hour (hover to see other rain measurements)
** Current wind speed in m/s (hover to see current wind gust speed)